createdAt,value
2019-04-23T00:03:41.673Z,101635.20
2019-04-23T00:06:19.166Z,101646.38
2019-04-23T00:08:52.654Z,101639.28
2019-04-23T00:14:05.781Z,101645.88
2019-04-23T00:19:27.702Z,101641.92
2019-04-23T00:22:20.528Z,101651.59
2019-04-23T00:25:26.832Z,101640.70
2019-04-23T00:27:32.141Z,101642.17
2019-04-23T00:29:55.982Z,101640.58
2019-04-23T00:32:28.810Z,101647.65
2019-04-23T00:42:47.732Z,101645.16
2019-04-23T00:45:16.787Z,101645.75
2019-04-23T00:47:52.741Z,101643.70
2019-04-23T00:50:21.265Z,101649.91
2019-04-23T00:52:50.397Z,101646.44
2019-04-23T00:55:26.513Z,101645.95
2019-04-23T00:57:58.548Z,101642.91
2019-04-23T01:00:43.550Z,101644.53
2019-04-23T01:06:18.206Z,101648.14
2019-04-23T01:08:48.832Z,101648.19
2019-04-23T01:11:16.610Z,101652.63
2019-04-23T01:13:50.996Z,101648.98
2019-04-23T01:16:17.793Z,101650.68
2019-04-23T01:18:58.159Z,101655.17
2019-04-23T01:24:35.239Z,101648.19
2019-04-23T01:27:51.543Z,101653.56
2019-04-23T01:30:16.108Z,101651.95
2019-04-23T01:32:44.089Z,101656.38
2019-04-23T01:37:47.757Z,101652.00
2019-04-23T01:40:26.551Z,101648.53
2019-04-23T01:42:49.238Z,101641.51
2019-04-23T01:45:31.316Z,101645.11
2019-04-23T01:47:54.944Z,101639.94
2019-04-23T01:50:34.490Z,101643.89
2019-04-23T01:53:00.729Z,101642.17
2019-04-23T02:03:43.977Z,101635.83
2019-04-23T02:06:16.000Z,101635.05
2019-04-23T04:54:22.775Z,101686.22
2019-04-23T04:57:05.007Z,101677.63
2019-04-23T05:04:48.311Z,101682.00
2019-04-23T05:12:27.462Z,101680.58
2019-04-23T05:15:19.751Z,101680.39
2019-04-23T05:23:42.900Z,101689.75
2019-04-23T05:26:46.516Z,101691.70
2019-04-23T05:29:15.221Z,101685.31
2019-04-23T05:31:52.887Z,101687.75
2019-04-23T05:37:24.795Z,101677.92
2019-04-23T05:39:56.726Z,101686.02
2019-04-23T05:42:19.810Z,101692.84
2019-04-23T05:47:29.290Z,101692.33
2019-04-23T05:52:27.803Z,101690.77
2019-04-23T05:55:02.431Z,101697.89
2019-04-23T05:57:28.493Z,101688.41
2019-04-23T06:00:05.481Z,101695.11
2019-04-23T06:02:33.651Z,101687.75
2019-04-23T06:05:04.092Z,101696.22
2019-04-23T06:07:35.519Z,101702.00
2019-04-23T06:10:54.138Z,101699.95
2019-04-23T06:13:12.280Z,101697.08
2019-04-23T06:19:01.587Z,101687.16
2019-04-23T06:21:33.881Z,101689.33
2019-04-23T06:24:09.998Z,101691.55
2019-04-23T06:26:39.626Z,101689.31
2019-04-23T06:29:05.351Z,101685.04
2019-04-23T06:31:40.913Z,101689.45
2019-04-23T06:34:12.525Z,101686.42
2019-04-23T06:39:01.249Z,101687.14
2019-04-23T06:41:41.706Z,101686.88
2019-04-23T06:47:03.706Z,101684.88
2019-04-23T06:54:42.425Z,101677.42
2019-04-23T06:57:25.529Z,101675.54
2019-04-23T06:59:59.282Z,101675.53
2019-04-23T07:05:27.555Z,101670.80
2019-04-23T07:10:25.277Z,101660.61
2019-04-23T07:12:57.715Z,101671.69
2019-04-23T07:18:36.483Z,101663.22
2019-04-23T07:21:15.412Z,101666.67
2019-04-23T07:26:52.851Z,101657.25
2019-04-23T07:29:15.931Z,101660.28
2019-04-23T07:31:52.158Z,101667.10
2019-04-23T07:34:13.797Z,101656.92
2019-04-23T07:36:50.825Z,101663.50
2019-04-23T07:39:35.245Z,101662.91
2019-04-23T07:42:16.846Z,101657.36
2019-04-23T07:45:04.959Z,101657.03
2019-04-23T07:48:03.456Z,101653.05
2019-04-23T07:58:44.814Z,101652.94
2019-04-23T08:01:21.159Z,101647.48
2019-04-23T08:03:55.928Z,101646.97
2019-04-23T08:06:19.252Z,101646.46
2019-04-23T08:09:19.124Z,101652.05
2019-04-23T08:17:12.367Z,101650.07
2019-04-23T08:19:49.063Z,101656.23
2019-04-23T08:25:08.336Z,101650.19
2019-04-23T08:27:51.788Z,101649.47
2019-04-23T08:30:32.266Z,101649.52
2019-04-23T08:33:24.492Z,101650.67
2019-04-23T08:46:56.876Z,101653.28
2019-04-23T08:49:29.347Z,101650.05
2019-04-23T08:54:37.026Z,101648.84
2019-04-23T08:56:55.272Z,101645.77
2019-04-23T09:04:41.762Z,101638.81
2019-04-23T09:07:12.379Z,101631.81
2019-04-23T09:10:23.343Z,101638.86
2019-04-23T09:15:23.453Z,101648.55
2019-04-23T09:20:22.755Z,101652.72
2019-04-23T09:22:51.731Z,101640.84
2019-04-23T09:25:28.446Z,101644.60
2019-04-23T09:27:52.651Z,101630.30
2019-04-23T09:33:17.204Z,101611.73
2019-04-23T09:36:06.462Z,101611.31
2019-04-23T09:38:53.653Z,101628.48
2019-04-23T09:41:39.833Z,101615.48
2019-04-23T09:47:34.242Z,101615.77
2019-04-23T09:49:55.522Z,101643.80
2019-04-23T09:52:32.703Z,101645.18
2019-04-23T09:55:11.709Z,101626.78
2019-04-23T09:57:29.672Z,101621.00
2019-04-23T10:00:01.673Z,101623.37
2019-04-23T10:02:21.610Z,101623.74
2019-04-23T10:04:48.620Z,101640.62
2019-04-23T10:07:18.041Z,101620.16
2019-04-23T10:09:36.342Z,101625.41
2019-04-23T10:12:07.337Z,101626.46
2019-04-23T10:14:38.666Z,101616.11
2019-04-23T10:17:10.268Z,101609.56
2019-04-23T10:19:40.614Z,101608.38
2019-04-23T10:25:19.276Z,101608.61
2019-04-23T10:27:55.189Z,101608.47
2019-04-23T10:30:21.727Z,101604.59
2019-04-23T10:32:51.771Z,101593.19
2019-04-23T10:35:37.895Z,101592.46
2019-04-23T10:38:01.808Z,101592.74
2019-04-23T10:40:31.693Z,101592.68
2019-04-23T10:42:56.468Z,101583.59
2019-04-23T10:46:07.949Z,101581.72
2019-04-23T10:54:24.035Z,101587.47
2019-04-23T10:56:44.816Z,101574.48
2019-04-23T10:59:35.686Z,101570.52
2019-04-23T11:02:42.710Z,101563.72
2019-04-23T11:10:16.098Z,101554.59
2019-04-23T11:13:09.185Z,101564.12
2019-04-23T11:18:52.227Z,101548.91
2019-04-23T11:23:50.106Z,101541.73
2019-04-23T11:26:28.446Z,101550.41
2019-04-23T11:28:50.363Z,101546.03
2019-04-23T11:31:35.187Z,101552.98
2019-04-23T11:34:01.150Z,101543.08
2019-04-23T11:36:49.864Z,101548.72
2019-04-23T11:41:34.265Z,101543.86
2019-04-23T11:46:45.697Z,101522.27
2019-04-23T11:49:22.556Z,101515.57
2019-04-23T11:51:10.574Z,101542.13
2019-04-23T11:51:51.405Z,101526.41
2019-04-23T11:57:14.269Z,101524.36
2019-04-23T11:59:29.732Z,101515.22
2019-04-23T12:04:55.647Z,101505.23
2019-04-23T12:07:34.375Z,101524.73
2019-04-23T12:12:57.452Z,101505.45
2019-04-23T12:15:32.597Z,101495.66
2019-04-23T12:18:03.346Z,101496.64
2019-04-23T12:23:12.335Z,101480.55
2019-04-23T12:28:13.515Z,101488.49
2019-04-23T12:30:48.747Z,101467.61
2019-04-23T12:33:31.756Z,101481.78
2019-04-23T12:38:40.972Z,101473.34
2019-04-23T12:41:13.992Z,101466.52
2019-04-23T12:43:43.597Z,101465.02
2019-04-23T12:46:02.188Z,101466.49
2019-04-23T12:48:50.954Z,101471.09
2019-04-23T12:51:19.908Z,101474.64
2019-04-23T12:53:45.649Z,101467.54
2019-04-23T12:56:20.481Z,101456.19
2019-04-23T12:58:38.228Z,101447.88
2019-04-23T13:04:11.599Z,101457.28
2019-04-23T13:06:39.179Z,101440.45
2019-04-23T13:11:42.255Z,101428.22
2019-04-23T13:14:17.325Z,101429.31
2019-04-23T13:16:53.917Z,101429.32
2019-04-23T13:19:23.630Z,101427.02
2019-04-23T13:24:54.268Z,101405.30
2019-04-23T13:30:16.879Z,101397.31
2019-04-23T13:33:08.340Z,101404.61
2019-04-23T13:36:17.459Z,101392.55
2019-04-23T13:41:40.851Z,101398.75
2019-04-23T13:44:21.439Z,101400.48
2019-04-23T13:46:49.770Z,101375.55
2019-04-23T13:49:18.509Z,101379.24
2019-04-23T13:51:46.713Z,101379.94
2019-04-23T13:54:27.803Z,101376.78
2019-04-23T13:57:23.990Z,101376.05
2019-04-23T13:59:31.425Z,101361.05
2019-04-23T14:01:54.479Z,101349.44
2019-04-23T14:04:50.676Z,101346.75
2019-04-23T14:07:19.856Z,101359.17
2019-04-23T14:10:13.972Z,101348.69
2019-04-23T14:12:50.745Z,101349.58
2019-04-23T14:20:30.166Z,101342.55
2019-04-23T14:23:10.737Z,101338.97
2019-04-23T14:25:29.777Z,101331.93
2019-04-23T14:28:13.968Z,101314.56
2019-04-23T14:30:38.993Z,101326.93
2019-04-23T14:33:11.531Z,101330.18
2019-04-23T14:35:33.393Z,101317.79
2019-04-23T14:38:22.325Z,101318.14
2019-04-23T14:43:15.145Z,101314.91
2019-04-23T14:49:04.307Z,101312.63
2019-04-23T14:51:31.978Z,101314.56
2019-04-23T14:53:48.331Z,101306.84
2019-04-23T14:56:22.545Z,101286.88
2019-04-23T14:59:09.625Z,101297.08
2019-04-23T15:03:57.501Z,101293.86
2019-04-23T15:09:20.966Z,101285.53
2019-04-23T15:11:56.382Z,101278.09
2019-04-23T15:17:24.617Z,101280.02
2019-04-23T15:19:58.098Z,101280.23
2019-04-23T15:25:01.366Z,101281.53
2019-04-23T15:30:06.999Z,101264.72
2019-04-23T15:35:25.051Z,101273.13
2019-04-23T15:40:18.310Z,101263.53
2019-04-23T15:42:52.112Z,101262.58
2019-04-23T15:45:15.193Z,101257.47
2019-04-23T15:47:48.107Z,101266.05
2019-04-23T15:50:24.614Z,101253.31
2019-04-23T15:55:22.480Z,101273.81
2019-04-23T16:00:17.905Z,101260.13
2019-04-23T16:02:28.319Z,101226.70
2019-04-23T16:04:58.061Z,101246.87
2019-04-23T16:07:47.879Z,101260.44
2019-04-23T16:10:48.403Z,101254.25
2019-04-23T16:13:19.946Z,101246.31
2019-04-23T16:15:50.413Z,101247.14
2019-04-23T16:18:44.709Z,101247.83
2019-04-23T16:23:42.146Z,101238.17
2019-04-23T16:26:17.616Z,101248.74
2019-04-23T16:32:04.238Z,101245.29
2019-04-23T16:35:04.710Z,101223.09
2019-04-23T16:37:15.470Z,101236.59
2019-04-23T16:40:16.528Z,101244.00
2019-04-23T16:42:42.744Z,101230.01
2019-04-23T16:45:11.014Z,101243.66
2019-04-23T16:47:36.895Z,101236.11
2019-04-23T16:50:09.388Z,101238.45
2019-04-23T16:52:42.507Z,101235.55
2019-04-23T17:00:31.162Z,101244.65
2019-04-23T17:03:12.383Z,101253.12
2019-04-23T17:08:43.425Z,101235.35
2019-04-23T17:11:10.061Z,101245.59
2019-04-23T17:13:34.572Z,101245.24
2019-04-23T17:16:10.715Z,101230.26
2019-04-23T17:21:10.237Z,101253.41
2019-04-23T17:23:53.797Z,101253.39
2019-04-23T17:26:13.769Z,101256.09
2019-04-23T17:28:35.902Z,101249.12
2019-04-23T17:31:35.258Z,101254.48
2019-04-23T17:34:12.141Z,101254.34
2019-04-23T17:37:03.271Z,101262.36
2019-04-23T17:39:31.023Z,101260.83
2019-04-23T17:45:16.632Z,101267.05
2019-04-23T17:47:52.265Z,101265.69
2019-04-23T17:50:26.573Z,101272.44
2019-04-23T17:52:56.213Z,101274.10
2019-04-23T17:55:21.792Z,101281.20
2019-04-23T17:58:01.544Z,101284.90
2019-04-23T18:00:36.546Z,101280.58
2019-04-23T18:05:30.794Z,101285.52
2019-04-23T18:08:06.236Z,101288.63
2019-04-23T18:13:04.445Z,101295.67
2019-04-23T18:15:29.911Z,101303.71
2019-04-23T18:18:02.334Z,101303.41
2019-04-23T18:29:02.623Z,101308.20
2019-04-23T18:31:49.135Z,101303.39
2019-04-23T18:36:53.863Z,101306.30
2019-04-23T18:39:24.169Z,101302.03
2019-04-23T18:42:06.356Z,101301.72
2019-04-23T18:44:32.533Z,101302.13
2019-04-23T18:47:17.839Z,101301.56
2019-04-23T18:49:38.430Z,101291.52
2019-04-23T18:51:58.143Z,101303.25
2019-04-23T18:54:28.514Z,101308.38
2019-04-23T18:57:09.541Z,101306.81
2019-04-23T19:05:08.559Z,101294.30
2019-04-23T19:13:44.747Z,101295.68
2019-04-23T19:16:37.382Z,101291.91
2019-04-23T19:21:47.367Z,101290.95
2019-04-23T19:23:54.851Z,101285.42
2019-04-23T19:26:55.246Z,101284.68
2019-04-23T19:29:01.962Z,101276.12
2019-04-23T19:31:55.600Z,101277.84
2019-04-23T19:39:45.397Z,101277.28
2019-04-23T19:42:13.905Z,101283.95
2019-04-23T19:44:51.204Z,101283.45
2019-04-23T19:47:18.953Z,101277.36
2019-04-23T19:49:48.441Z,101275.48
2019-04-23T19:52:20.386Z,101284.48
2019-04-23T19:57:37.705Z,101271.00
2019-04-23T20:00:13.408Z,101264.91
2019-04-23T20:02:45.304Z,101266.23
2019-04-23T20:05:15.140Z,101261.48
2019-04-23T20:07:42.634Z,101261.10
2019-04-23T20:09:58.479Z,101260.42
2019-04-23T20:12:39.060Z,101258.62
2019-04-23T20:17:54.651Z,101249.47
2019-04-23T20:20:25.382Z,101249.66
2019-04-23T20:22:59.476Z,101252.90
2019-04-23T20:25:56.592Z,101247.32
2019-04-23T20:32:08.718Z,101234.98
2019-04-23T20:36:23.714Z,101235.54
2019-04-23T20:38:57.769Z,101229.45
2019-04-23T20:41:28.168Z,101233.80
2019-04-23T20:44:01.803Z,101230.77
2019-04-23T20:46:31.853Z,101237.03
2019-04-23T20:51:25.872Z,101229.23
2019-04-23T20:53:57.328Z,101226.95
2019-04-23T20:59:17.460Z,101226.34
2019-04-23T21:04:51.135Z,101226.62
2019-04-23T21:07:22.726Z,101218.17
2019-04-23T21:09:53.048Z,101220.83
2019-04-23T21:12:15.898Z,101213.78
2019-04-23T21:14:57.285Z,101212.26
2019-04-23T21:17:14.302Z,101225.16
2019-04-23T21:19:59.786Z,101202.77
2019-04-23T21:22:24.589Z,101216.59
2019-04-23T21:24:46.144Z,101198.55
2019-04-23T21:30:03.575Z,101206.41
2019-04-23T21:32:59.087Z,101205.26
2019-04-23T21:35:16.178Z,101214.91
2019-04-23T21:41:00.950Z,101203.04
2019-04-23T21:51:42.226Z,101199.98
2019-04-23T21:53:56.867Z,101197.42
2019-04-23T21:59:04.344Z,101194.80
2019-04-23T22:01:32.363Z,101190.44
2019-04-23T22:07:11.565Z,101182.39
2019-04-23T22:09:56.325Z,101181.58
2019-04-23T22:12:15.076Z,101185.27
2019-04-23T22:14:45.319Z,101176.73
2019-04-23T22:17:15.359Z,101170.02
2019-04-23T22:19:55.594Z,101163.64
2019-04-23T22:22:16.924Z,101169.03
2019-04-23T22:27:16.737Z,101163.98
2019-04-23T22:29:54.059Z,101157.55
2019-04-23T22:32:32.719Z,101159.69
2019-04-23T22:35:00.511Z,101161.88
2019-04-23T22:37:23.620Z,101148.61
2019-04-23T22:42:41.216Z,101131.88
2019-04-23T22:45:07.134Z,101134.94
2019-04-23T22:47:33.597Z,101134.80
2019-04-23T22:52:32.293Z,101132.36
2019-04-23T22:55:12.811Z,101121.75
2019-04-23T23:00:16.413Z,101112.03
2019-04-23T23:08:34.395Z,101104.42
2019-04-23T23:11:02.268Z,101118.22
2019-04-23T23:13:42.131Z,101107.78
2019-04-23T23:18:49.138Z,101104.47
2019-04-23T23:21:05.362Z,101102.16
2019-04-23T23:23:30.213Z,101098.05
2019-04-23T23:26:09.976Z,101097.64
2019-04-23T23:31:08.508Z,101087.13
2019-04-23T23:36:33.261Z,101094.00
2019-04-23T23:41:55.095Z,101081.08
2019-04-23T23:46:56.295Z,101086.72
2019-04-23T23:51:49.581Z,101074.83
2019-04-23T23:54:18.102Z,101072.80
